createdAt,value
2017-11-04T00:01:51.998Z,38.13
2017-11-04T00:04:18.183Z,38.63
2017-11-04T00:06:44.459Z,35.80
2017-11-04T00:09:10.651Z,37.83
2017-11-04T00:11:36.841Z,38.07
2017-11-04T00:14:03.037Z,35.83
2017-11-04T00:16:29.993Z,36.33
2017-11-04T00:18:56.155Z,37.00
2017-11-04T00:21:23.166Z,34.13
2017-11-04T00:23:49.341Z,37.47
2017-11-04T00:26:16.272Z,35.43
2017-11-04T00:28:42.450Z,34.40
2017-11-04T00:31:09.340Z,36.37
2017-11-04T00:33:35.506Z,36.80
2017-11-04T00:36:02.480Z,35.87
2017-11-04T00:38:28.661Z,37.00
2017-11-04T00:40:54.844Z,36.20
2017-11-04T00:43:21.797Z,37.93
2017-11-04T00:45:48.726Z,37.93
2017-11-04T00:48:15.657Z,33.57
2017-11-04T00:50:41.849Z,34.67
2017-11-04T00:53:08.013Z,35.57
2017-11-04T00:55:34.194Z,33.87
2017-11-04T00:58:00.401Z,37.07
2017-11-04T01:00:26.593Z,32.70
2017-11-04T01:02:52.784Z,35.77
2017-11-04T01:05:19.774Z,34.53
2017-11-04T01:07:46.013Z,37.60
2017-11-04T01:10:12.190Z,35.07
2017-11-04T01:12:46.028Z,34.10
2017-11-04T01:15:12.222Z,36.07
2017-11-04T01:17:38.397Z,33.73
2017-11-04T01:20:05.346Z,35.20
2017-11-04T01:22:31.517Z,36.90
2017-11-04T01:24:57.675Z,35.30
2017-11-04T01:27:23.907Z,37.03
2017-11-04T01:29:50.109Z,36.13
2017-11-04T01:32:16.279Z,33.30
2017-11-04T01:34:42.485Z,39.13
2017-11-04T01:37:08.666Z,35.97
2017-11-04T01:39:35.597Z,34.77
2017-11-04T01:42:01.799Z,35.30
2017-11-04T01:44:27.973Z,38.50
2017-11-04T01:46:54.913Z,37.47
2017-11-04T01:49:22.594Z,35.40
2017-11-04T01:51:49.535Z,33.83
2017-11-04T01:54:17.094Z,37.53
2017-11-04T01:56:43.569Z,36.70
2017-11-04T01:59:09.802Z,36.27
2017-11-04T02:01:35.981Z,35.17
2017-11-04T02:04:02.190Z,36.67
2017-11-04T02:06:28.356Z,35.13
2017-11-04T02:08:54.717Z,32.50
2017-11-04T02:11:21.695Z,35.10
2017-11-04T02:13:47.894Z,33.30
2017-11-04T02:16:15.553Z,35.37
2017-11-04T02:18:42.528Z,35.30
2017-11-04T02:21:09.460Z,36.47
2017-11-04T02:23:35.628Z,38.50
2017-11-04T02:26:02.570Z,35.10
2017-11-04T02:28:28.787Z,36.30
2017-11-04T02:30:55.019Z,35.10
2017-11-04T02:33:21.245Z,35.50
2017-11-04T02:35:48.205Z,36.30
2017-11-04T02:38:14.401Z,35.70
2017-11-04T02:40:40.621Z,36.63
2017-11-04T02:43:06.811Z,36.50
2017-11-04T02:45:33.742Z,36.50
2017-11-04T02:47:59.977Z,36.73
2017-11-04T02:50:26.164Z,33.30
2017-11-04T02:52:52.362Z,36.63
2017-11-04T02:55:19.365Z,37.30
2017-11-04T02:57:45.574Z,33.27
2017-11-04T03:00:12.528Z,37.97
2017-11-04T03:02:38.805Z,36.73
2017-11-04T03:05:04.985Z,37.10
2017-11-04T03:07:31.947Z,34.33
2017-11-04T03:09:58.777Z,34.93
2017-11-04T03:12:25.742Z,35.33
2017-11-04T03:14:51.957Z,34.13
2017-11-04T03:17:18.935Z,34.00
2017-11-04T03:19:45.117Z,33.70
2017-11-04T03:22:11.322Z,35.70
2017-11-04T03:24:37.534Z,36.60
2017-11-04T03:27:03.722Z,33.70
2017-11-04T03:29:29.929Z,34.83
2017-11-04T03:31:56.119Z,33.67
2017-11-04T03:34:23.020Z,35.57
2017-11-04T03:36:49.220Z,35.30
2017-11-04T03:39:15.453Z,36.40
2017-11-04T03:41:41.702Z,35.50
2017-11-04T03:44:07.865Z,35.67
2017-11-04T03:46:34.080Z,35.70
2017-11-04T03:49:00.272Z,34.93
2017-11-04T03:51:27.205Z,36.27
2017-11-04T03:53:54.160Z,34.53
2017-11-04T03:56:21.061Z,36.00
2017-11-04T03:58:47.228Z,37.37
2017-11-04T04:01:13.484Z,36.83
2017-11-04T04:03:40.453Z,35.43
2017-11-04T04:06:06.700Z,36.70
2017-11-04T04:08:32.903Z,38.57
2017-11-04T04:11:02.369Z,34.70
2017-11-04T04:13:28.574Z,35.90
2017-11-04T04:15:54.772Z,34.90
2017-11-04T04:18:20.953Z,37.50
2017-11-04T04:20:47.222Z,37.30
2017-11-04T04:23:13.432Z,34.63
2017-11-04T04:25:39.630Z,35.03
2017-11-04T04:28:06.582Z,36.77
2017-11-04T04:30:33.521Z,35.63
2017-11-04T04:32:59.705Z,34.83
2017-11-04T04:35:25.895Z,36.03
2017-11-04T04:37:52.853Z,36.30
2017-11-04T04:40:21.492Z,35.20
2017-11-04T04:42:47.695Z,35.03
2017-11-04T04:45:13.921Z,35.17
2017-11-04T04:47:40.097Z,37.40
2017-11-04T04:50:06.269Z,39.03
2017-11-04T04:52:33.201Z,33.13
2017-11-04T04:55:00.126Z,35.97
2017-11-04T04:57:26.333Z,36.17
2017-11-04T04:59:54.225Z,35.20
2017-11-04T05:02:20.389Z,37.80
2017-11-04T05:04:46.572Z,34.70
2017-11-04T05:07:12.825Z,37.67
2017-11-04T05:09:38.990Z,32.60
2017-11-04T05:12:05.497Z,35.53
2017-11-04T05:14:31.685Z,36.80
2017-11-04T05:16:58.596Z,34.80
2017-11-04T05:19:24.798Z,38.07
2017-11-04T05:21:50.998Z,34.70
2017-11-04T05:24:17.930Z,35.87
2017-11-04T05:26:46.552Z,36.27
2017-11-04T05:29:13.498Z,34.80
2017-11-04T05:31:40.405Z,37.67
2017-11-04T05:34:06.634Z,35.27
2017-11-04T05:36:32.843Z,34.77
2017-11-04T05:38:59.053Z,37.80
2017-11-04T05:41:25.248Z,35.20
2017-11-04T05:43:52.929Z,34.30
2017-11-04T05:46:19.874Z,34.00
2017-11-04T05:48:46.078Z,36.33
2017-11-04T05:51:12.334Z,35.90
2017-11-04T05:53:38.518Z,35.03
2017-11-04T05:56:06.577Z,34.77
2017-11-04T05:58:33.569Z,35.27
2017-11-04T06:00:59.754Z,37.93
2017-11-04T06:03:26.686Z,34.60
2017-11-04T06:05:52.903Z,32.53
2017-11-04T06:08:19.106Z,35.93
2017-11-04T06:10:45.279Z,35.47
2017-11-04T06:13:11.555Z,34.20
2017-11-04T06:15:38.455Z,37.93
2017-11-04T06:18:04.664Z,36.33
2017-11-04T06:20:30.880Z,33.83
2017-11-04T06:22:57.069Z,38.20
2017-11-04T06:25:24.085Z,35.70
2017-11-04T06:27:50.325Z,36.07
2017-11-04T06:30:16.534Z,37.07
2017-11-04T06:32:42.750Z,34.40
2017-11-04T06:35:08.985Z,35.50
2017-11-04T06:37:35.943Z,35.10
2017-11-04T06:40:02.177Z,35.30
2017-11-04T06:42:28.732Z,35.50
2017-11-04T06:44:54.994Z,35.80
2017-11-04T06:47:21.193Z,39.33
2017-11-04T06:49:48.163Z,36.80
2017-11-04T06:52:14.329Z,37.37
2017-11-04T06:54:40.522Z,35.53
2017-11-04T06:57:06.748Z,34.50
2017-11-04T06:59:33.669Z,37.30
2017-11-04T07:01:59.880Z,39.40
2017-11-04T07:04:26.093Z,36.63
2017-11-04T07:06:52.273Z,35.33
2017-11-04T07:09:19.201Z,37.70
2017-11-04T07:11:46.204Z,34.60
2017-11-04T07:14:12.458Z,33.73
2017-11-04T07:16:38.678Z,36.67
2017-11-04T07:19:05.647Z,36.53
2017-11-04T07:21:31.838Z,36.60
2017-11-04T07:23:58.013Z,35.00
2017-11-04T07:26:24.226Z,35.20
2017-11-04T07:28:50.430Z,37.53
2017-11-04T07:31:16.688Z,36.30
2017-11-04T07:33:43.652Z,36.40
2017-11-04T07:36:10.625Z,36.97
2017-11-04T07:38:36.861Z,36.87
2017-11-04T07:41:03.037Z,37.63
2017-11-04T07:43:29.972Z,34.70
2017-11-04T07:45:56.142Z,34.37
2017-11-04T07:48:23.064Z,34.80
2017-11-04T07:50:49.258Z,36.50
2017-11-04T07:53:15.485Z,37.47
2017-11-04T07:55:41.754Z,36.70
2017-11-04T07:58:07.957Z,37.30
2017-11-04T08:00:34.174Z,36.90
2017-11-04T08:03:00.365Z,40.00
2017-11-04T08:05:26.547Z,37.87
2017-11-04T08:07:52.741Z,37.83
2017-11-04T08:10:19.697Z,35.90
2017-11-04T08:12:46.637Z,36.37
2017-11-04T08:15:12.881Z,38.00
2017-11-04T08:17:39.097Z,36.00
2017-11-04T08:20:05.323Z,37.60
2017-11-04T08:22:31.504Z,35.53
2017-11-04T08:24:58.422Z,34.53
2017-11-04T08:27:24.635Z,35.97
2017-11-04T08:29:50.849Z,37.23
2017-11-04T08:32:17.084Z,36.93
2017-11-04T08:34:43.270Z,35.47
2017-11-04T08:37:10.210Z,36.60
2017-11-04T08:39:36.480Z,36.97
2017-11-04T08:42:03.465Z,36.53
2017-11-04T08:44:29.671Z,42.40
2017-11-04T08:46:55.895Z,37.60
2017-11-04T08:49:22.859Z,36.27
2017-11-04T08:51:49.074Z,33.50
2017-11-04T08:54:16.014Z,36.67
2017-11-04T08:56:42.242Z,45.90
2017-11-04T08:59:09.173Z,34.80
2017-11-04T09:01:35.473Z,37.00
2017-11-04T09:04:01.707Z,41.33
2017-11-04T09:06:27.909Z,42.10
2017-11-04T09:08:54.897Z,35.77
2017-11-04T09:11:21.123Z,35.00
2017-11-04T09:13:47.302Z,33.87
2017-11-04T09:16:13.728Z,33.40
2017-11-04T09:18:39.960Z,35.40
2017-11-04T09:21:06.233Z,39.07
2017-11-04T09:23:34.122Z,38.87
2017-11-04T09:26:01.033Z,37.53
2017-11-04T09:28:27.245Z,36.60
2017-11-04T09:30:55.297Z,35.23
2017-11-04T09:33:21.601Z,36.07
2017-11-04T09:35:48.116Z,34.03
2017-11-04T09:38:15.169Z,36.53
2017-11-04T09:40:41.353Z,35.17
2017-11-04T09:43:08.276Z,36.20
2017-11-04T09:45:34.510Z,33.67
2017-11-04T09:48:01.440Z,35.13
2017-11-04T09:50:27.641Z,33.87
2017-11-04T09:52:53.864Z,37.00
2017-11-04T09:55:20.087Z,33.40
2017-11-04T09:57:46.316Z,36.60
2017-11-04T10:00:13.572Z,36.70
2017-11-04T10:02:39.831Z,32.77
2017-11-04T10:05:06.018Z,35.57
2017-11-04T10:07:33.061Z,35.83
2017-11-04T10:09:59.228Z,35.57
2017-11-04T10:12:26.137Z,35.93
2017-11-04T10:14:52.380Z,34.23
2017-11-04T10:17:18.768Z,37.00
2017-11-04T10:19:44.990Z,36.50
2017-11-04T10:22:11.898Z,35.00
2017-11-04T10:24:38.080Z,37.90
2017-11-04T10:27:04.266Z,33.40
2017-11-04T10:29:31.247Z,36.57
2017-11-04T10:31:58.170Z,37.10
2017-11-04T10:34:25.126Z,37.27
2017-11-04T10:36:52.951Z,35.90
2017-11-04T10:39:19.158Z,38.00
2017-11-04T10:41:46.086Z,37.23
2017-11-04T10:44:13.125Z,35.33
2017-11-04T10:46:39.342Z,37.07
2017-11-04T10:49:05.536Z,36.47
2017-11-04T10:51:32.444Z,40.13
2017-11-04T10:53:58.661Z,38.80
2017-11-04T10:56:24.859Z,38.87
2017-11-04T10:58:52.054Z,35.43
2017-11-04T11:01:18.222Z,33.50
2017-11-04T11:03:44.495Z,33.00
2017-11-04T11:06:12.314Z,34.53
2017-11-04T11:08:39.990Z,35.37
2017-11-04T11:11:06.191Z,35.43
2017-11-04T11:13:34.066Z,37.73
2017-11-04T11:16:00.289Z,37.90
2017-11-04T11:18:26.721Z,33.47
2017-11-04T11:20:52.938Z,31.93
2017-11-04T11:23:21.907Z,34.80
2017-11-04T11:25:48.492Z,30.63
2017-11-04T11:28:14.704Z,32.47
2017-11-04T11:30:40.936Z,32.17
2017-11-04T11:33:08.081Z,31.53
2017-11-04T11:35:35.905Z,30.90
2017-11-04T11:38:02.072Z,32.07
2017-11-04T11:40:28.225Z,32.10
2017-11-04T11:42:55.193Z,31.60
2017-11-04T11:45:21.377Z,31.33
2017-11-04T11:47:47.544Z,31.10
2017-11-04T11:50:14.473Z,31.30
2017-11-04T11:52:40.649Z,32.03
2017-11-04T11:55:06.850Z,34.17
2017-11-04T11:57:33.973Z,33.20
2017-11-04T12:00:00.276Z,31.33
2017-11-04T12:02:26.565Z,30.90
2017-11-04T12:04:53.711Z,30.43
2017-11-04T12:07:19.903Z,30.20
2017-11-04T12:09:46.273Z,30.90
2017-11-04T12:12:12.554Z,31.00
2017-11-04T12:14:38.769Z,31.00
2017-11-04T12:17:05.677Z,31.03
2017-11-04T12:19:31.959Z,31.10
2017-11-04T12:21:58.861Z,32.33
2017-11-04T12:24:25.120Z,33.63
2017-11-04T12:26:51.393Z,33.47
2017-11-04T12:29:18.390Z,32.73
2017-11-04T12:31:44.605Z,32.40
2017-11-04T12:34:10.809Z,31.80
2017-11-04T12:36:37.946Z,32.80
2017-11-04T12:39:04.197Z,33.97
2017-11-04T12:41:31.135Z,33.77
2017-11-04T12:43:58.124Z,34.90
2017-11-04T12:46:24.345Z,34.27
2017-11-04T12:48:51.281Z,34.93
2017-11-04T12:51:18.218Z,36.10
2017-11-04T12:53:44.479Z,32.37
2017-11-04T12:56:10.801Z,35.43
2017-11-04T12:58:36.980Z,34.97
2017-11-04T13:01:03.183Z,34.07
2017-11-04T13:03:29.453Z,34.17
2017-11-04T13:05:55.657Z,34.47
2017-11-04T13:08:21.851Z,38.87
2017-11-04T13:10:48.845Z,37.40
2017-11-04T13:13:15.041Z,35.17
2017-11-04T13:15:41.958Z,36.03
2017-11-04T13:18:09.042Z,36.53
2017-11-04T13:20:35.342Z,36.70
2017-11-04T13:23:01.517Z,41.23
2017-11-04T13:25:30.209Z,38.90
2017-11-04T13:27:58.441Z,38.17
2017-11-04T13:30:25.416Z,38.80
2017-11-04T13:32:52.453Z,37.50
2017-11-04T13:35:18.840Z,38.27
2017-11-04T13:37:45.096Z,33.10
2017-11-04T13:40:11.297Z,37.70
2017-11-04T13:42:38.220Z,37.27
2017-11-04T13:45:05.160Z,38.60
2017-11-04T13:47:32.178Z,38.83
2017-11-04T13:49:58.366Z,37.50
2017-11-04T13:52:25.438Z,38.97
2017-11-04T13:54:51.681Z,38.77
2017-11-04T13:57:17.893Z,39.50
2017-11-04T13:59:44.113Z,35.53
2017-11-04T14:02:10.354Z,34.20
2017-11-04T14:04:36.614Z,36.33
2017-11-04T14:07:02.801Z,38.20
2017-11-04T14:09:29.973Z,41.07
2017-11-04T14:11:56.184Z,37.33
2017-11-04T14:14:22.409Z,39.67
2017-11-04T14:16:50.570Z,40.00
2017-11-04T14:19:18.142Z,38.80
2017-11-04T14:21:45.139Z,38.23
2017-11-04T14:24:12.292Z,37.60
2017-11-04T14:26:38.472Z,39.90
2017-11-04T14:29:05.415Z,37.63
2017-11-04T14:31:32.369Z,38.27
2017-11-04T14:34:00.088Z,36.83
2017-11-04T14:36:27.108Z,37.73
2017-11-04T14:38:53.402Z,38.10
2017-11-04T14:41:21.170Z,38.27
2017-11-04T14:43:47.705Z,37.20
2017-11-04T14:46:14.761Z,35.63
2017-11-04T14:48:43.360Z,33.30
2017-11-04T14:51:10.397Z,35.13
2017-11-04T14:53:37.541Z,37.50
2017-11-04T14:56:10.790Z,34.70
2017-11-04T14:58:38.370Z,34.10
2017-11-04T15:01:04.612Z,35.00
2017-11-04T15:03:31.538Z,34.93
2017-11-04T15:05:58.673Z,34.87
2017-11-04T15:08:25.319Z,34.33
2017-11-04T15:10:51.477Z,34.50
2017-11-04T15:13:19.504Z,35.73
2017-11-04T15:15:45.717Z,33.43
2017-11-04T15:18:11.929Z,35.83
2017-11-04T15:20:38.207Z,35.90
2017-11-04T15:23:04.509Z,35.10
2017-11-04T15:25:30.816Z,37.37
2017-11-04T15:30:30.241Z,35.87
2017-11-04T15:32:58.170Z,35.90
2017-11-04T15:35:25.222Z,35.87
2017-11-04T15:37:52.216Z,36.57
2017-11-04T15:40:19.163Z,33.30
2017-11-04T15:42:45.354Z,35.90
2017-11-04T15:45:11.537Z,33.87
2017-11-04T15:47:38.553Z,35.67
2017-11-04T15:50:04.758Z,35.27
2017-11-04T15:52:30.971Z,37.77
2017-11-04T15:54:58.725Z,36.80
2017-11-04T15:57:25.017Z,35.60
2017-11-04T15:59:51.202Z,35.43
2017-11-04T16:02:18.114Z,35.97
2017-11-04T16:04:44.305Z,35.73
2017-11-04T16:07:11.224Z,34.23
2017-11-04T16:09:37.438Z,36.23
2017-11-04T16:12:03.641Z,34.70
2017-11-04T16:14:29.834Z,36.13
2017-11-04T16:16:56.812Z,36.90
2017-11-04T16:19:22.989Z,35.77
2017-11-04T16:21:49.174Z,35.47
2017-11-04T16:24:15.668Z,36.83
2017-11-04T16:26:41.848Z,37.87
2017-11-04T16:29:08.040Z,35.87
2017-11-04T16:31:34.236Z,38.70
2017-11-04T16:34:00.449Z,38.00
2017-11-04T16:36:27.356Z,37.87
2017-11-04T16:38:54.335Z,36.63
2017-11-04T16:41:21.295Z,36.37
2017-11-04T16:43:48.225Z,38.33
2017-11-04T16:46:15.274Z,38.30
2017-11-04T16:48:41.448Z,38.30
2017-11-04T16:51:07.625Z,38.97
2017-11-04T16:53:33.851Z,40.07
2017-11-04T16:56:00.046Z,41.13
2017-11-04T16:58:26.218Z,37.70
2017-11-04T17:00:52.394Z,36.20
2017-11-04T17:03:19.307Z,37.83
2017-11-04T17:05:45.485Z,36.43
2017-11-04T17:08:11.721Z,35.40
2017-11-04T17:10:37.905Z,34.00
2017-11-04T17:13:04.085Z,37.20
2017-11-04T17:15:31.018Z,36.57
2017-11-04T17:17:57.933Z,37.87
2017-11-04T17:20:24.112Z,38.10
2017-11-04T17:22:51.038Z,37.43
2017-11-04T17:25:17.325Z,34.17
2017-11-04T17:27:43.510Z,37.17
2017-11-04T17:30:09.737Z,36.20
2017-11-04T17:32:35.892Z,34.87
2017-11-04T17:35:02.789Z,36.73
2017-11-04T17:37:28.980Z,33.50
2017-11-04T17:39:55.149Z,34.80
2017-11-04T17:42:21.324Z,32.80
2017-11-04T17:44:48.341Z,36.10
2017-11-04T17:47:14.496Z,32.20
2017-11-04T17:49:40.696Z,36.00
2017-11-04T17:52:07.658Z,35.53
2017-11-04T17:54:33.865Z,35.67
2017-11-04T17:57:00.054Z,35.70
2017-11-04T17:59:26.206Z,34.60
2017-11-04T18:01:53.877Z,32.23
2017-11-04T18:04:20.814Z,34.60
2017-11-04T18:06:47.809Z,33.10
2017-11-04T18:09:14.011Z,33.80
2017-11-04T18:11:40.938Z,34.27
2017-11-04T18:14:08.081Z,34.80
2017-11-04T18:16:34.260Z,34.03
2017-11-04T18:19:00.447Z,34.97
2017-11-04T18:21:26.781Z,33.93
2017-11-04T18:23:52.957Z,35.90
2017-11-04T18:26:19.973Z,33.17
2017-11-04T18:28:46.205Z,33.90
2017-11-04T18:31:12.417Z,34.70
2017-11-04T18:33:38.609Z,34.50
2017-11-04T18:36:05.578Z,34.33
2017-11-04T18:38:31.797Z,35.03
2017-11-04T18:40:57.965Z,33.63
2017-11-04T18:43:25.034Z,35.83
2017-11-04T18:45:51.209Z,31.20
2017-11-04T18:48:18.161Z,33.47
2017-11-04T18:50:45.122Z,32.87
2017-11-04T18:53:12.063Z,34.43
2017-11-04T18:55:39.008Z,32.03
2017-11-04T18:58:06.038Z,34.20
2017-11-04T19:00:32.267Z,34.67
2017-11-04T19:02:58.442Z,33.50
2017-11-04T19:05:25.392Z,33.03
2017-11-04T19:07:51.573Z,32.53
2017-11-04T19:10:17.748Z,33.33
2017-11-04T19:12:44.682Z,35.43
2017-11-04T19:15:10.870Z,32.50
2017-11-04T19:17:37.030Z,31.60
2017-11-04T19:20:03.209Z,33.60
2017-11-04T19:22:30.137Z,35.53
2017-11-04T19:24:56.312Z,34.47
2017-11-04T19:27:22.582Z,35.20
2017-11-04T19:29:48.757Z,33.57
2017-11-04T19:32:15.729Z,33.00
2017-11-04T19:34:42.114Z,33.23
2017-11-04T19:37:08.282Z,33.07
2017-11-04T19:39:35.210Z,32.70
2017-11-04T19:42:01.414Z,33.77
2017-11-04T19:44:27.587Z,34.40
2017-11-04T19:46:53.781Z,34.83
2017-11-04T19:49:19.957Z,35.93
2017-11-04T19:51:46.909Z,32.57
2017-11-04T19:54:13.101Z,33.47
2017-11-04T19:56:39.281Z,35.20
2017-11-04T19:59:05.525Z,35.00
2017-11-04T20:01:32.455Z,35.67
2017-11-04T20:03:58.669Z,32.83
2017-11-04T20:06:24.835Z,32.50
2017-11-04T20:08:51.757Z,35.90
2017-11-04T20:11:17.945Z,32.47
2017-11-04T20:13:44.160Z,33.90
2017-11-04T20:16:11.073Z,33.87
2017-11-04T20:18:37.388Z,36.53
2017-11-04T20:21:03.555Z,31.50
2017-11-04T20:23:29.728Z,33.03
2017-11-04T20:25:56.659Z,33.33
2017-11-04T20:28:23.647Z,33.20
2017-11-04T20:30:49.824Z,32.80
2017-11-04T20:33:16.017Z,34.63
2017-11-04T20:35:42.185Z,31.90
2017-11-04T20:38:08.353Z,31.97
2017-11-04T20:40:35.290Z,34.00
2017-11-04T20:43:02.204Z,32.63
2017-11-04T20:45:28.381Z,32.97
2017-11-04T20:47:55.297Z,32.50
2017-11-04T20:50:21.474Z,32.17
2017-11-04T20:52:47.640Z,30.00
2017-11-04T20:55:13.831Z,31.07
2017-11-04T20:57:40.757Z,34.60
2017-11-04T21:00:07.660Z,32.60
2017-11-04T21:02:33.879Z,33.00
2017-11-04T21:05:00.044Z,32.50
2017-11-04T21:07:26.217Z,29.93
2017-11-04T21:09:53.182Z,31.03
2017-11-04T21:12:20.089Z,32.33
2017-11-04T21:14:46.252Z,30.17
2017-11-04T21:17:12.486Z,31.97
2017-11-04T21:19:39.513Z,30.93
2017-11-04T21:22:06.529Z,29.97
2017-11-04T21:24:32.884Z,28.80
2017-11-04T21:27:00.677Z,29.27
2017-11-04T21:29:28.030Z,28.20
2017-11-04T21:31:54.405Z,28.47
2017-11-04T21:34:20.736Z,27.77
2017-11-04T21:36:47.064Z,27.57
2017-11-04T21:39:13.411Z,28.90
2017-11-04T21:41:39.697Z,29.10
2017-11-04T21:44:06.001Z,31.80
2017-11-04T21:46:32.300Z,27.80
2017-11-04T21:48:58.631Z,27.30
2017-11-04T21:51:24.908Z,27.07
2017-11-04T21:53:51.140Z,25.10
2017-11-04T21:56:18.122Z,26.00
2017-11-04T21:58:44.304Z,26.20
2017-11-04T22:01:10.481Z,25.40
2017-11-04T22:03:36.661Z,23.80
2017-11-04T22:06:03.622Z,24.87
2017-11-04T22:08:30.030Z,25.70
2017-11-04T22:10:56.345Z,23.80
2017-11-04T22:13:22.669Z,23.63
2017-11-04T22:15:49.000Z,27.00
2017-11-04T22:18:15.364Z,24.27
2017-11-04T22:20:42.351Z,24.10
2017-11-04T22:23:09.291Z,23.57
2017-11-04T22:25:36.207Z,21.33
2017-11-04T22:28:02.390Z,23.40
2017-11-04T22:30:28.666Z,24.37
2017-11-04T22:32:54.862Z,24.03
2017-11-04T22:35:21.052Z,24.23
2017-11-04T22:37:47.261Z,24.80
2017-11-04T22:40:13.433Z,23.47
2017-11-04T22:42:39.602Z,24.37
2017-11-04T22:45:06.555Z,22.83
2017-11-04T22:47:33.470Z,24.80
2017-11-04T22:49:59.659Z,22.97
2017-11-04T22:52:25.846Z,21.60
2017-11-04T22:54:51.997Z,25.30
2017-11-04T22:57:18.210Z,25.27
2017-11-04T22:59:44.413Z,24.33
2017-11-04T23:02:10.576Z,23.10
2017-11-04T23:04:36.733Z,23.70
2017-11-04T23:07:02.926Z,21.67
2017-11-04T23:09:29.093Z,22.40
2017-11-04T23:11:55.264Z,23.30
2017-11-04T23:14:22.178Z,22.73
2017-11-04T23:16:48.336Z,23.13
2017-11-04T23:19:15.241Z,23.20
2017-11-04T23:21:41.439Z,23.20
2017-11-04T23:24:07.594Z,23.97
2017-11-04T23:26:33.763Z,23.03
2017-11-04T23:28:59.977Z,24.77
2017-11-04T23:31:26.194Z,22.60
2017-11-04T23:33:52.349Z,23.90
2017-11-04T23:36:18.542Z,23.40
2017-11-04T23:38:44.729Z,22.17
2017-11-04T23:41:12.382Z,23.40
2017-11-04T23:43:39.301Z,22.43
2017-11-04T23:46:05.465Z,25.23
2017-11-04T23:48:31.622Z,24.13
2017-11-04T23:50:58.546Z,24.67
2017-11-04T23:53:24.713Z,23.70
2017-11-04T23:55:51.654Z,23.93
2017-11-04T23:58:17.836Z,25.90
